Time;durP1;ratioP1;P1;durP2;ratioP2;P2;SDS_P1;SDS_P2;PMS_P1;PMS_P2;Temp;Humidity;BMP_temperature;BMP_pressure;BME280_temperature;BME280_humidity;BME280_pressure;Samples;Min_cycle;Max_cycle;Signal;HPM_P1;HPM_P2
2021/09/17 00:02:24;;;;;;;7.23;6.53;;;12.60;99.90;;;;;;6083551;23;20725;-81
2021/09/17 00:05:11;;;;;;;6.40;5.80;;;12.60;99.90;;;;;;6089009;23;20578;-81
2021/09/17 00:07:58;;;;;;;6.07;5.53;;;12.70;99.90;;;;;;6089159;23;20609;-81
2021/09/17 00:10:44;;;;;;;5.70;5.20;;;12.80;99.90;;;;;;6090175;23;20577;-81
2021/09/17 00:13:27;;;;;;;6.53;5.90;;;12.80;99.90;;;;;;6090153;23;21179;-81
2021/09/17 00:16:14;;;;;;;6.30;5.70;;;12.80;99.90;;;;;;6088434;23;20689;-81
2021/09/17 00:19:01;;;;;;;6.50;5.93;;;12.70;99.90;;;;;;6088278;23;21147;-81
2021/09/17 00:21:41;;;;;;;6.73;6.13;;;12.70;99.90;;;;;;6088809;23;20896;-81
2021/09/17 00:24:17;;;;;;;5.37;4.87;;;12.70;99.90;;;;;;6090157;23;20538;-81
2021/09/17 00:26:53;;;;;;;7.50;6.20;;;12.60;99.90;;;;;;6089530;23;20554;-81
2021/09/17 00:29:33;;;;;;;5.83;5.33;;;12.70;99.90;;;;;;6090028;23;20594;-81
2021/09/17 00:32:18;;;;;;;6.47;5.87;;;12.80;99.90;;;;;;6090614;23;20564;-81
2021/09/17 00:34:54;;;;;;;6.77;6.17;;;12.80;99.90;;;;;;6090579;23;20570;-81
2021/09/17 00:37:35;;;;;;;6.17;5.43;;;12.90;99.90;;;;;;6089597;23;20562;-81
2021/09/17 00:40:19;;;;;;;7.40;5.97;;;12.90;99.90;;;;;;6089672;23;20624;-81
2021/09/17 00:43:06;;;;;;;6.87;6.17;;;12.90;99.90;;;;;;6088660;23;20669;-81
2021/09/17 00:45:44;;;;;;;7.17;6.13;;;13.00;99.90;;;;;;6089760;23;20658;-81
2021/09/17 00:48:27;;;;;;;5.90;5.40;;;13.00;99.90;;;;;;6089635;23;20558;-81
2021/09/17 00:51:08;;;;;;;5.90;5.40;;;13.10;99.90;;;;;;6089940;23;20633;-81
2021/09/17 00:53:55;;;;;;;6.20;5.60;;;13.00;99.90;;;;;;6088476;23;20962;-81
2021/09/17 00:56:45;;;;;;;6.70;6.00;;;13.10;99.90;;;;;;6088214;23;20667;-81
2021/09/17 00:59:32;;;;;;;7.23;5.70;;;13.10;99.90;;;;;;6088552;23;20689;-81
2021/09/17 01:02:16;;;;;;;6.57;5.90;;;13.10;99.90;;;;;;6088909;23;20558;-81
2021/09/17 01:04:58;;;;;;;6.67;5.50;;;13.00;99.90;;;;;;6090063;23;20648;-81
2021/09/17 01:07:44;;;;;;;6.40;5.30;;;13.10;99.90;;;;;;6089338;23;20534;-81
2021/09/17 01:10:27;;;;;;;6.30;5.80;;;13.10;99.90;;;;;;6090264;23;20559;-81
2021/09/17 01:13:16;;;;;;;6.30;5.70;;;13.10;99.90;;;;;;6084404;23;20983;-81
2021/09/17 01:16:02;;;;;;;6.50;5.90;;;12.90;99.90;;;;;;6089728;23;20590;-81
2021/09/17 01:18:53;;;;;;;6.93;5.80;;;13.00;99.90;;;;;;6088209;23;20716;-81
2021/09/17 01:21:36;;;;;;;7.10;5.90;;;13.00;99.90;;;;;;6090136;23;20623;-81
2021/09/17 01:24:15;;;;;;;7.17;6.47;;;13.00;99.90;;;;;;6090280;23;20558;-81
2021/09/17 01:26:55;;;;;;;6.10;5.50;;;13.00;99.90;;;;;;6089212;23;21189;-81
2021/09/17 01:29:39;;;;;;;6.17;5.57;;;13.00;99.90;;;;;;6090011;23;20679;-81
2021/09/17 01:32:26;;;;;;;6.47;5.33;;;13.20;99.90;;;;;;6088461;23;21200;-80
2021/09/17 01:35:07;;;;;;;9.77;6.70;;;13.10;99.90;;;;;;6089211;23;20635;-81
2021/09/17 01:37:55;;;;;;;5.97;5.17;;;13.10;99.90;;;;;;6087663;23;21112;-81
2021/09/17 01:40:42;;;;;;;6.37;5.77;;;13.20;99.90;;;;;;6089938;23;20661;-81
2021/09/17 01:43:17;;;;;;;5.37;4.97;;;13.20;99.90;;;;;;6090201;23;20576;-81
2021/09/17 01:45:55;;;;;;;6.43;5.83;;;13.30;99.90;;;;;;6089824;23;20595;-81
2021/09/17 01:48:41;;;;;;;6.53;5.93;;;13.30;99.90;;;;;;6087737;23;20612;-81
2021/09/17 01:51:21;;;;;;;5.73;5.23;;;13.40;99.90;;;;;;6090054;23;20590;-81
2021/09/17 01:53:59;;;;;;;6.03;5.40;;;13.40;99.90;;;;;;6089549;23;20589;-82
2021/09/17 01:56:46;;;;;;;6.97;6.00;;;13.30;99.90;;;;;;6088082;23;20615;-81
2021/09/17 01:59:32;;;;;;;5.70;5.20;;;13.10;99.90;;;;;;6089697;23;20566;-81
2021/09/17 02:02:19;;;;;;;6.07;5.57;;;13.20;99.90;;;;;;6088576;23;20618;-81
2021/09/17 02:05:10;;;;;;;6.33;5.50;;;13.20;99.90;;;;;;6088444;23;20625;-81
2021/09/17 02:07:43;;;;;;;8.17;5.40;;;13.40;99.90;;;;;;6089398;23;20668;-81
2021/09/17 02:10:25;;;;;;;5.10;4.70;;;13.40;99.90;;;;;;6090159;23;20566;-81
2021/09/17 02:13:12;;;;;;;5.37;4.87;;;13.50;99.90;;;;;;6089484;23;20562;-81
2021/09/17 02:15:54;;;;;;;6.10;4.77;;;13.40;99.90;;;;;;6090030;23;21032;-81
2021/09/17 02:18:35;;;;;;;5.37;4.97;;;13.40;99.90;;;;;;6089275;23;20642;-81
2021/09/17 02:21:22;;;;;;;5.63;5.03;;;13.30;99.90;;;;;;6082776;23;20738;-81
2021/09/17 02:24:09;;;;;;;13.10;5.77;;;13.40;99.90;;;;;;6088008;23;20575;-81
2021/09/17 02:26:57;;;;;;;10.40;6.33;;;13.50;99.90;;;;;;6087754;23;21150;-81
2021/09/17 02:29:35;;;;;;;7.73;6.17;;;13.40;99.90;;;;;;6089235;23;20682;-81
2021/09/17 02:32:09;;;;;;;7.20;6.50;;;13.40;99.90;;;;;;6089716;23;20616;-81
2021/09/17 02:34:56;;;;;;;6.13;5.63;;;13.40;99.90;;;;;;6088125;23;20582;-81
2021/09/17 02:37:43;;;;;;;6.33;5.83;;;13.50;99.90;;;;;;6087186;23;20686;-81
2021/09/17 02:40:18;;;;;;;5.93;5.43;;;13.50;99.90;;;;;;6088877;23;20567;-81
2021/09/17 02:42:56;;;;;;;7.93;5.80;;;13.50;99.90;;;;;;6089958;23;20910;-81
2021/09/17 02:45:43;;;;;;;7.50;6.80;;;13.60;99.90;;;;;;6088130;23;20581;-81
2021/09/17 02:48:28;;;;;;;7.20;6.60;;;13.50;99.90;;;;;;6088932;23;20613;-81
2021/09/17 02:51:15;;;;;;;7.07;6.47;;;13.40;99.90;;;;;;6081670;23;21593;-81
2021/09/17 02:53:55;;;;;;;6.10;5.50;;;13.30;99.90;;;;;;6089403;22;21215;-81
2021/09/17 02:56:42;;;;;;;10.60;6.17;;;13.40;99.90;;;;;;6087334;23;20605;-81
2021/09/17 02:59:26;;;;;;;6.27;5.67;;;13.50;99.90;;;;;;6089399;23;20590;-81
2021/09/17 03:02:13;;;;;;;6.60;6.00;;;13.50;99.90;;;;;;6087910;23;20642;-81
2021/09/17 03:05:00;;;;;;;7.70;6.60;;;13.60;99.90;;;;;;6088998;23;20660;-81
2021/09/17 03:07:49;;;;;;;8.20;7.40;;;13.60;99.90;;;;;;6089000;23;20563;-81
2021/09/17 03:10:32;;;;;;;6.87;6.17;;;13.50;99.90;;;;;;6089443;23;20550;-81
2021/09/17 03:13:11;;;;;;;6.80;6.00;;;13.40;99.90;;;;;;6089737;23;20876;-81
2021/09/17 03:16:00;;;;;;;7.10;6.40;;;13.50;99.90;;;;;;6087792;23;21148;-81
2021/09/17 03:18:46;;;;;;;6.83;6.27;;;13.60;99.90;;;;;;6088888;23;20599;-81
2021/09/17 03:21:26;;;;;;;6.90;6.30;;;13.60;99.90;;;;;;6089733;23;20586;-81
2021/09/17 03:24:01;;;;;;;6.43;5.83;;;13.50;99.90;;;;;;6088686;23;20586;-81
2021/09/17 03:26:48;;;;;;;6.50;5.90;;;13.40;99.90;;;;;;6088247;23;20914;-81
2021/09/17 03:29:29;;;;;;;6.70;6.10;;;13.40;99.90;;;;;;6090036;23;21127;-82
2021/09/17 03:32:18;;;;;;;8.97;7.33;;;13.40;99.90;;;;;;6088570;23;20971;-81
2021/09/17 03:35:03;;;;;;;8.93;7.10;;;13.40;99.90;;;;;;6090256;23;20598;-81
2021/09/17 03:37:41;;;;;;;6.90;6.30;;;13.40;99.90;;;;;;6089212;23;20673;-81
2021/09/17 03:40:25;;;;;;;6.70;6.10;;;13.50;99.90;;;;;;6090339;23;20594;-81
2021/09/17 03:43:15;;;;;;;7.17;6.47;;;13.40;99.90;;;;;;6088345;23;20618;-81
2021/09/17 03:46:02;;;;;;;8.00;7.23;;;13.40;99.90;;;;;;6088790;23;20599;-81
2021/09/17 03:48:40;;;;;;;7.63;6.43;;;13.40;99.90;;;;;;6089552;23;20542;-81
2021/09/17 03:51:27;;;;;;;7.07;6.37;;;13.40;99.90;;;;;;6088915;23;20685;-81
2021/09/17 03:54:08;;;;;;;7.80;7.10;;;13.50;99.90;;;;;;6090159;23;20534;-81
2021/09/17 03:56:45;;;;;;;7.27;6.67;;;13.50;99.90;;;;;;6089745;23;20582;-81
2021/09/17 03:59:22;;;;;;;8.03;7.23;;;13.50;99.90;;;;;;6090080;23;20542;-81
2021/09/17 04:02:06;;;;;;;7.03;6.40;;;13.60;99.90;;;;;;6089059;23;20622;-81
2021/09/17 04:04:54;;;;;;;8.13;7.33;;;13.70;99.90;;;;;;6090213;23;20597;-81
2021/09/17 04:07:41;;;;;;;7.53;6.83;;;13.80;99.90;;;;;;6089489;23;20618;-81
2021/09/17 04:10:28;;;;;;;7.17;6.57;;;13.70;99.90;;;;;;6089972;23;21265;-81
2021/09/17 04:13:11;;;;;;;7.47;6.70;;;13.70;99.90;;;;;;6083523;23;20622;-81
2021/09/17 04:15:45;;;;;;;6.70;6.10;;;13.60;99.90;;;;;;6090186;23;20571;-81
2021/09/17 04:18:32;;;;;;;7.30;6.60;;;13.60;99.90;;;;;;6087561;23;20664;-81
2021/09/17 04:21:20;;;;;;;7.70;7.00;;;13.50;99.90;;;;;;6088868;23;20626;-81
2021/09/17 04:24:06;;;;;;;8.70;7.00;;;13.40;99.90;;;;;;6090573;23;20568;-81
2021/09/17 04:26:53;;;;;;;9.13;8.13;;;13.50;99.90;;;;;;6087908;23;20683;-81
2021/09/17 04:29:40;;;;;;;8.10;7.37;;;13.60;99.90;;;;;;6088927;23;20629;-81
2021/09/17 04:32:15;;;;;;;10.40;8.03;;;13.60;99.90;;;;;;6090375;23;20632;-81
2021/09/17 04:34:57;;;;;;;7.83;7.13;;;13.40;99.90;;;;;;6090829;23;20578;-81
2021/09/17 04:37:46;;;;;;;8.23;7.43;;;13.40;99.90;;;;;;6089400;23;20598;-81
2021/09/17 04:40:23;;;;;;;9.87;8.03;;;13.50;99.90;;;;;;6090360;23;20558;-81
2021/09/17 04:43:10;;;;;;;7.93;7.20;;;13.50;99.90;;;;;;6089753;23;20999;-81
2021/09/17 04:45:49;;;;;;;8.20;6.80;;;13.60;99.90;;;;;;6090705;23;20578;-81
2021/09/17 04:48:36;;;;;;;8.97;6.70;;;13.60;99.90;;;;;;6087985;23;20666;-81
2021/09/17 04:51:10;;;;;;;7.33;6.73;;;13.60;99.90;;;;;;6090404;23;20567;-81
2021/09/17 04:53:58;;;;;;;8.10;7.30;;;13.60;99.90;;;;;;6090756;23;20708;-81
2021/09/17 04:56:38;;;;;;;8.73;8.03;;;13.70;99.90;;;;;;6087861;23;20641;-81
2021/09/17 04:59:17;;;;;;;8.40;7.60;;;13.60;99.90;;;;;;6090207;23;20883;-81
2021/09/17 05:02:04;;;;;;;7.57;6.80;;;13.50;99.90;;;;;;6088396;23;20653;-81
2021/09/17 05:04:50;;;;;;;6.63;6.03;;;13.40;99.90;;;;;;6090340;23;20609;-81
2021/09/17 05:07:33;;;;;;;11.43;8.80;;;13.40;99.90;;;;;;6089049;23;21222;-81
2021/09/17 05:10:09;;;;;;;7.50;6.80;;;13.30;99.90;;;;;;6090362;23;20558;-81
2021/09/17 05:12:54;;;;;;;8.10;7.40;;;13.20;99.90;;;;;;6090050;23;20565;-81
2021/09/17 05:15:34;;;;;;;8.97;7.70;;;13.30;99.90;;;;;;6090490;23;20559;-81
2021/09/17 05:18:13;;;;;;;9.30;8.27;;;13.30;99.90;;;;;;6082261;23;20668;-81
2021/09/17 05:21:04;;;;;;;9.47;7.03;;;13.20;99.90;;;;;;6089822;22;20585;-83
2021/09/17 05:23:41;;;;;;;8.30;7.60;;;13.20;99.90;;;;;;6089020;22;20593;-83
2021/09/17 05:26:21;;;;;;;10.20;7.10;;;13.20;99.90;;;;;;6089205;22;20585;-82
2021/09/17 05:29:11;;;;;;;7.30;6.53;;;13.20;99.90;;;;;;6088344;23;20603;-85
2021/09/17 05:31:57;;;;;;;8.67;7.83;;;13.10;99.90;;;;;;6092182;23;20587;-83
2021/09/17 05:34:59;;;;;;;8.10;7.30;;;13.10;99.90;;;;;;6087900;23;21242;-86
2021/09/17 05:37:40;;;;;;;11.83;9.20;;;13.20;99.90;;;;;;6084501;22;20583;-84
2021/09/17 05:40:22;;;;;;;16.87;11.07;;;13.00;99.90;;;;;;6089732;23;20582;-85
2021/09/17 05:43:10;;;;;;;9.13;8.20;;;12.90;99.90;;;;;;6084816;23;20610;-84
2021/09/17 05:45:50;;;;;;;14.93;9.17;;;12.90;99.90;;;;;;6089540;23;20626;-83
2021/09/17 05:48:32;;;;;;;10.90;9.30;;;12.90;99.90;;;;;;6089405;23;20845;-84
2021/09/17 05:51:34;;;;;;;10.07;9.07;;;12.90;99.90;;;;;;6088638;22;20740;-85
2021/09/17 05:54:12;;;;;;;8.90;8.10;;;12.90;99.90;;;;;;6089926;22;20585;-84
2021/09/17 05:56:46;;;;;;;11.50;8.13;;;12.90;99.90;;;;;;6090779;23;20612;-84
2021/09/17 05:59:22;;;;;;;13.00;10.30;;;13.00;99.90;;;;;;6090155;23;20653;-84
2021/09/17 06:02:08;;;;;;;11.10;8.53;;;13.00;99.90;;;;;;6088873;23;20590;-85
2021/09/17 06:04:44;;;;;;;8.77;7.90;;;13.10;99.90;;;;;;6091155;22;20589;-84
2021/09/17 06:07:29;;;;;;;11.70;8.93;;;13.10;99.90;;;;;;6089960;22;20583;-83
2021/09/17 06:10:06;;;;;;;9.47;8.53;;;13.20;99.90;;;;;;6090760;22;20586;-83
2021/09/17 06:12:52;;;;;;;9.50;8.57;;;13.30;99.90;;;;;;6090141;23;20554;-83
2021/09/17 06:15:34;;;;;;;11.20;8.60;;;13.40;99.90;;;;;;6090741;23;20542;-83
2021/09/17 06:18:06;;;;;;;8.53;7.70;;;13.50;99.90;;;;;;6089592;23;20569;-83
2021/09/17 06:20:53;;;;;;;9.43;8.63;;;13.50;99.90;;;;;;6089960;23;21136;-83
2021/09/17 06:23:34;;;;;;;9.07;8.17;;;13.50;99.90;;;;;;6092676;23;20625;-84
2021/09/17 06:26:18;;;;;;;10.07;9.07;;;13.60;99.90;;;;;;6092736;23;20596;-84
2021/09/17 06:29:08;;;;;;;8.53;7.20;;;13.70;99.90;;;;;;6091399;23;20590;-84
2021/09/17 06:31:56;;;;;;;10.70;9.60;;;13.80;99.90;;;;;;6092725;23;20944;-85
2021/09/17 06:34:43;;;;;;;11.53;10.00;;;13.80;99.90;;;;;;6093571;23;20621;-85
2021/09/17 06:37:27;;;;;;;11.77;10.57;;;13.80;99.90;;;;;;6092913;23;20539;-85
2021/09/17 06:40:10;;;;;;;12.10;10.90;;;13.90;99.90;;;;;;6090579;23;20857;-85
2021/09/17 06:42:49;;;;;;;10.33;9.00;;;14.00;99.90;;;;;;6092815;23;20602;-84
2021/09/17 06:45:32;;;;;;;14.47;10.60;;;14.10;99.90;;;;;;6090336;23;20579;-85
2021/09/17 06:48:17;;;;;;;12.30;9.50;;;14.20;99.90;;;;;;6090043;23;20543;-85
2021/09/17 06:51:01;;;;;;;13.40;9.17;;;14.30;99.90;;;;;;6089933;23;20579;-85
2021/09/17 06:53:37;;;;;;;12.43;9.90;;;14.30;99.90;;;;;;6090118;22;20591;-85
2021/09/17 06:56:11;;;;;;;9.83;8.83;;;14.40;99.90;;;;;;6089673;23;20586;-85
2021/09/17 06:58:58;;;;;;;10.90;9.73;;;14.40;99.90;;;;;;6091431;23;20602;-85
2021/09/17 07:01:38;;;;;;;9.63;8.73;;;14.50;99.90;;;;;;6091391;23;20595;-85
2021/09/17 07:04:21;;;;;;;10.17;9.10;;;14.60;99.90;;;;;;6092765;22;20813;-85
2021/09/17 07:07:08;;;;;;;9.20;8.20;;;14.60;99.90;;;;;;6091531;23;20619;-85
2021/09/17 07:09:55;;;;;;;9.50;8.50;;;14.70;99.90;;;;;;6092834;22;20593;-85
2021/09/17 07:12:44;;;;;;;10.20;8.67;;;14.70;99.90;;;;;;6092148;23;20591;-85
2021/09/17 07:15:27;;;;;;;12.50;9.00;;;14.80;99.90;;;;;;6092749;23;20866;-85
2021/09/17 07:18:11;;;;;;;10.30;9.40;;;14.80;99.90;;;;;;6092130;22;20974;-85
2021/09/17 07:20:54;;;;;;;9.17;8.27;;;14.90;99.90;;;;;;6093193;23;21354;-85
2021/09/17 07:23:39;;;;;;;10.07;9.17;;;14.90;99.90;;;;;;6092856;23;20564;-85
2021/09/17 07:26:12;;;;;;;10.60;8.87;;;14.90;99.90;;;;;;6093281;23;20618;-85
2021/09/17 07:28:45;;;;;;;10.60;9.50;;;15.00;99.90;;;;;;6092628;23;20651;-85
2021/09/17 07:31:19;;;;;;;10.60;9.57;;;15.00;99.90;;;;;;6092066;23;20570;-85
2021/09/17 07:33:54;;;;;;;10.37;9.30;;;15.00;99.90;;;;;;6092449;23;20589;-85
2021/09/17 07:36:26;;;;;;;11.30;9.67;;;15.20;99.90;;;;;;6093490;23;20609;-84
2021/09/17 07:39:00;;;;;;;9.60;8.70;;;15.20;99.90;;;;;;6094290;22;20606;-85
2021/09/17 07:41:44;;;;;;;10.07;8.63;;;15.20;99.90;;;;;;6093916;22;20608;-85
2021/09/17 07:44:19;;;;;;;10.27;9.27;;;15.30;99.90;;;;;;6093174;22;20598;-84
2021/09/17 07:47:01;;;;;;;10.13;9.13;;;15.30;99.90;;;;;;6094085;22;20579;-85
2021/09/17 07:49:39;;;;;;;10.03;9.13;;;15.30;99.90;;;;;;6094311;22;20595;-85
2021/09/17 07:52:18;;;;;;;11.47;9.33;;;15.30;99.90;;;;;;6094681;23;20651;-84
2021/09/17 07:54:55;;;;;;;9.20;8.27;;;15.40;99.90;;;;;;6093078;22;20624;-85
2021/09/17 07:57:37;;;;;;;10.40;9.30;;;15.50;99.90;;;;;;6093243;23;20546;-84
2021/09/17 08:00:12;;;;;;;10.07;9.07;;;15.70;99.90;;;;;;6093186;23;20616;-84
2021/09/17 08:02:58;;;;;;;11.37;8.70;;;15.70;99.90;;;;;;6093138;23;20612;-84
2021/09/17 08:05:29;;;;;;;8.60;7.80;;;15.70;99.90;;;;;;6093220;22;20890;-84
2021/09/17 08:08:17;;;;;;;10.73;8.47;;;15.80;99.90;;;;;;6092757;23;20597;-84
2021/09/17 08:10:57;;;;;;;12.50;8.43;;;15.70;99.90;;;;;;6091267;22;20639;-84
2021/09/17 08:13:40;;;;;;;9.40;8.43;;;15.80;99.90;;;;;;6092046;23;20538;-84
2021/09/17 08:16:25;;;;;;;9.83;8.83;;;15.80;99.90;;;;;;6091983;23;20588;-83
2021/09/17 08:19:09;;;;;;;12.10;9.50;;;15.90;99.90;;;;;;6092394;23;20864;-84
2021/09/17 08:21:43;;;;;;;9.77;8.87;;;16.00;99.90;;;;;;6092363;22;20680;-85
2021/09/17 08:24:24;;;;;;;9.33;8.50;;;16.10;99.90;;;;;;6092272;23;20534;-84
2021/09/17 08:27:00;;;;;;;8.97;8.17;;;16.10;99.90;;;;;;6090584;23;20918;-84
2021/09/17 08:29:41;;;;;;;9.73;8.83;;;16.10;99.90;;;;;;6089967;23;20651;-84
2021/09/17 08:32:16;;;;;;;9.80;8.93;;;16.20;99.90;;;;;;6090208;23;20562;-84
2021/09/17 08:34:52;;;;;;;11.07;9.60;;;16.30;99.90;;;;;;6091573;23;20563;-85
2021/09/17 08:37:24;;;;;;;12.57;10.30;;;16.40;99.90;;;;;;6090792;23;21198;-84
2021/09/17 08:40:01;;;;;;;12.50;11.20;;;16.60;99.90;;;;;;6091506;23;20562;-83
2021/09/17 08:42:37;;;;;;;14.10;11.00;;;16.60;99.90;;;;;;6091572;23;20617;-84
2021/09/17 08:45:13;;;;;;;11.93;10.63;;;16.70;99.90;;;;;;6092734;23;20559;-84
2021/09/17 08:47:51;;;;;;;11.90;10.70;;;16.70;99.90;;;;;;6091754;23;20542;-84
2021/09/17 08:50:23;;;;;;;11.40;10.13;;;16.60;99.90;;;;;;6092154;23;20537;-84
2021/09/17 08:52:54;;;;;;;12.13;10.93;;;16.60;99.90;;;;;;6091321;23;20598;-84
2021/09/17 08:55:28;;;;;;;10.80;9.80;;;16.70;99.90;;;;;;6091255;22;20582;-84
2021/09/17 08:58:02;;;;;;;13.50;11.00;;;16.70;99.90;;;;;;6090946;23;20591;-83
2021/09/17 09:00:42;;;;;;;11.53;10.37;;;16.80;99.90;;;;;;6090735;23;20582;-84
2021/09/17 09:03:28;;;;;;;11.87;10.70;;;16.90;99.90;;;;;;6090444;23;20567;-84
2021/09/17 09:06:11;;;;;;;12.70;10.70;;;17.00;99.90;;;;;;6090595;23;20555;-84
2021/09/17 09:08:58;;;;;;;12.60;10.77;;;17.10;99.90;;;;;;6090151;23;20690;-83
2021/09/17 09:11:33;;;;;;;11.70;10.60;;;17.20;99.90;;;;;;6088677;23;20916;-84
2021/09/17 09:14:08;;;;;;;9.80;8.90;;;17.20;99.90;;;;;;6091655;23;20593;-84
2021/09/17 09:16:45;;;;;;;10.50;9.60;;;17.10;99.90;;;;;;6090235;22;20619;-83
2021/09/17 09:19:18;;;;;;;12.37;10.17;;;17.20;99.90;;;;;;6090620;23;21086;-83
2021/09/17 09:21:49;;;;;;;11.40;10.23;;;17.20;99.90;;;;;;6091540;23;20563;-84
2021/09/17 09:24:20;;;;;;;9.83;8.90;;;17.30;99.40;;;;;;6089662;23;20559;-84
2021/09/17 09:27:13;;;;;;;10.00;9.07;;;17.30;99.80;;;;;;6090512;23;20626;-84
2021/09/17 09:29:51;;;;;;;10.80;9.70;;;17.40;99.90;;;;;;6090741;23;21031;-84
2021/09/17 09:32:26;;;;;;;10.53;9.53;;;17.40;99.90;;;;;;6091062;23;20653;-84
2021/09/17 09:35:04;;;;;;;10.67;9.67;;;17.50;99.90;;;;;;6091466;23;20586;-84
2021/09/17 09:37:42;;;;;;;10.07;9.07;;;17.60;99.90;;;;;;6090842;23;20539;-84
2021/09/17 09:40:26;;;;;;;9.20;8.30;;;17.70;99.90;;;;;;6088970;23;20575;-84
2021/09/17 09:43:01;;;;;;;10.20;9.20;;;17.70;99.20;;;;;;6092270;23;20686;-84
2021/09/17 09:45:32;;;;;;;10.77;9.70;;;17.80;99.00;;;;;;6090351;23;20538;-82
2021/09/17 09:48:09;;;;;;;11.33;10.23;;;17.70;99.10;;;;;;6090819;23;20551;-83
2021/09/17 09:50:43;;;;;;;11.60;10.50;;;17.80;98.70;;;;;;6092289;23;20586;-84
2021/09/17 09:53:16;;;;;;;9.90;9.10;;;17.90;98.40;;;;;;6090906;23;20629;-84
2021/09/17 09:55:55;;;;;;;10.50;9.40;;;18.10;98.00;;;;;;6091501;23;20529;-82
2021/09/17 09:58:31;;;;;;;10.70;9.70;;;18.10;98.10;;;;;;6092733;23;20565;-83
2021/09/17 10:01:04;;;;;;;12.30;9.60;;;18.10;97.70;;;;;;6092087;22;20665;-83
2021/09/17 10:03:38;;;;;;;11.20;9.23;;;18.00;98.10;;;;;;6093937;23;20646;-83
2021/09/17 10:06:10;;;;;;;11.30;10.20;;;18.00;98.40;;;;;;6094069;23;20531;-84
2021/09/17 10:08:51;;;;;;;8.50;7.70;;;18.20;97.20;;;;;;6093074;23;20593;-83
2021/09/17 10:11:39;;;;;;;9.77;8.67;;;18.30;96.90;;;;;;6093176;23;20535;-83
2021/09/17 10:14:13;;;;;;;8.20;7.50;;;18.30;96.70;;;;;;6093149;23;20643;-84
2021/09/17 10:16:49;;;;;;;8.40;7.60;;;18.20;96.90;;;;;;6090453;23;20591;-85
2021/09/17 10:20:09;;;;;;;8.90;7.80;;;18.40;97.10;;;;;;6093136;23;20560;-85
2021/09/17 10:22:54;;;;;;;10.53;9.60;;;18.40;97.10;;;;;;6092256;23;20619;-82
2021/09/17 10:25:33;;;;;;;7.53;6.83;;;18.40;96.30;;;;;;6093624;23;20540;-82
2021/09/17 10:28:42;;;;;;;7.97;7.17;;;18.50;96.90;;;;;;6093615;23;20596;-85
2021/09/17 10:35:42;;;;;;;8.37;7.23;;;18.70;95.80;;;;;;6048312;22;20612;-84
2021/09/17 10:38:33;;;;;;;7.97;7.18;;;18.70;95.60;;;;;;6089989;23;20815;-84
2021/09/17 10:41:13;;;;;;;7.13;5.73;;;18.90;94.50;;;;;;6092654;23;20192;-84
2021/09/17 10:44:00;;;;;;;5.87;5.43;;;19.10;93.50;;;;;;6092038;23;20601;-84
2021/09/17 10:46:37;;;;;;;6.30;5.70;;;19.30;92.60;;;;;;6092290;23;20557;-83
2021/09/17 10:49:12;;;;;;;5.70;5.10;;;19.40;90.90;;;;;;6092496;23;21081;-84
2021/09/17 10:51:46;;;;;;;5.60;4.90;;;19.30;88.40;;;;;;6091002;23;20897;-83
2021/09/17 10:54:38;;;;;;;5.20;4.80;;;18.80;91.10;;;;;;6090156;23;20625;-83
2021/09/17 10:57:18;;;;;;;5.10;4.50;;;18.50;92.10;;;;;;6093022;22;20623;-83
2021/09/17 10:59:55;;;;;;;5.07;4.67;;;18.50;91.90;;;;;;6093770;23;20980;-83
2021/09/17 11:02:42;;;;;;;4.93;4.53;;;18.40;94.30;;;;;;6089990;23;20589;-82
2021/09/17 11:05:31;;;;;;;5.07;4.67;;;18.30;92.60;;;;;;6092542;23;20590;-83
2021/09/17 11:08:43;;;;;;;5.43;5.03;;;18.10;93.20;;;;;;6091738;23;20689;-82
2021/09/17 11:11:31;;;;;;;5.80;5.30;;;17.90;94.80;;;;;;6091038;23;20583;-82
2021/09/17 11:14:19;;;;;;;7.13;5.80;;;17.70;94.10;;;;;;6092392;23;20617;-83
2021/09/17 11:16:52;;;;;;;14.50;6.33;;;17.60;95.40;;;;;;6091168;22;20618;-83
2021/09/17 11:19:23;;;;;;;6.00;5.20;;;17.70;96.70;;;;;;6092629;23;20581;-83
2021/09/17 11:21:59;;;;;;;6.53;5.80;;;17.70;95.30;;;;;;6093890;23;20563;-83
2021/09/17 11:24:36;;;;;;;5.70;4.77;;;17.60;95.20;;;;;;6093090;23;20606;-83
2021/09/17 11:27:20;;;;;;;5.77;4.63;;;17.60;94.60;;;;;;6091447;23;20620;-83
2021/09/17 11:30:05;;;;;;;7.10;5.00;;;17.60;94.80;;;;;;6091048;23;20593;-83
2021/09/17 11:32:41;;;;;;;5.00;4.63;;;17.70;94.50;;;;;;6093484;23;21165;-83
2021/09/17 11:35:17;;;;;;;5.50;5.03;;;17.60;94.50;;;;;;6093589;22;21151;-82
2021/09/17 11:37:54;;;;;;;4.93;4.53;;;17.60;94.80;;;;;;6092576;22;20955;-83
2021/09/17 11:40:32;;;;;;;5.50;5.00;;;17.70;95.00;;;;;;6093461;23;20689;-83
2021/09/17 11:43:15;;;;;;;5.23;4.83;;;17.70;94.70;;;;;;6092050;23;20579;-83
2021/09/17 11:45:54;;;;;;;4.83;4.43;;;17.80;94.40;;;;;;6093308;23;20540;-84
2021/09/17 11:48:30;;;;;;;4.97;4.47;;;17.80;94.80;;;;;;6094788;22;20636;-83
2021/09/17 11:51:12;;;;;;;4.27;3.63;;;17.80;95.00;;;;;;6094361;23;20527;-83
2021/09/17 11:53:52;;;;;;;4.40;4.00;;;17.70;93.10;;;;;;6094831;23;20565;-83
2021/09/17 11:56:28;;;;;;;4.13;3.83;;;17.60;92.30;;;;;;6093657;22;20613;-84
2021/09/17 11:59:01;;;;;;;4.50;4.10;;;17.70;93.60;;;;;;6094504;23;20594;-83
2021/09/17 12:01:33;;;;;;;5.00;4.57;;;17.80;93.60;;;;;;6093680;23;20527;-83
2021/09/17 12:04:04;;;;;;;5.03;4.63;;;17.80;92.00;;;;;;6094622;23;20630;-83
2021/09/17 12:06:37;;;;;;;7.47;4.03;;;17.80;90.50;;;;;;6094818;23;20542;-83
2021/09/17 12:09:11;;;;;;;4.23;3.90;;;17.90;91.70;;;;;;6094908;23;20547;-83
2021/09/17 12:11:56;;;;;;;9.73;4.20;;;18.00;93.30;;;;;;6092875;23;20544;-83
2021/09/17 12:14:33;;;;;;;4.40;4.10;;;18.10;93.10;;;;;;6094638;23;20622;-83
2021/09/17 12:17:10;;;;;;;4.97;3.90;;;18.20;90.00;;;;;;6094949;23;20565;-83
2021/09/17 12:20:00;;;;;;;4.00;3.70;;;18.20;92.30;;;;;;6095182;23;20546;-83
2021/09/17 12:22:43;;;;;;;4.20;3.80;;;18.30;93.00;;;;;;6095154;23;21051;-83
2021/09/17 12:25:31;;;;;;;4.40;3.63;;;18.40;91.80;;;;;;6094902;23;20957;-83
2021/09/17 12:28:05;;;;;;;5.93;5.33;;;18.60;93.10;;;;;;6094685;23;20689;-83
2021/09/17 12:30:41;;;;;;;4.83;4.27;;;18.70;92.40;;;;;;6095150;23;20605;-84
2021/09/17 12:33:20;;;;;;;9.47;4.30;;;18.90;90.80;;;;;;6094656;23;20587;-84
2021/09/17 12:35:54;;;;;;;4.27;3.97;;;19.10;90.30;;;;;;6094075;23;20537;-83
2021/09/17 12:38:30;;;;;;;4.17;3.87;;;19.30;90.20;;;;;;6094463;23;20589;-83
2021/09/17 12:41:13;;;;;;;3.30;3.10;;;19.40;90.60;;;;;;6091517;23;21085;-82
2021/09/17 12:43:47;;;;;;;3.83;3.47;;;19.50;90.60;;;;;;6090434;23;20591;-83
2021/09/17 12:46:21;;;;;;;4.00;3.70;;;19.60;88.30;;;;;;6089739;23;20618;-83
2021/09/17 12:49:01;;;;;;;4.20;3.90;;;19.50;87.50;;;;;;6090466;23;20547;-83
2021/09/17 12:51:32;;;;;;;5.90;3.93;;;19.30;79.20;;;;;;6090554;23;20557;-83
2021/09/17 12:54:10;;;;;;;7.97;3.80;;;19.20;81.10;;;;;;6089952;23;20585;-83
2021/09/17 12:56:49;;;;;;;4.10;3.50;;;19.10;88.40;;;;;;6090010;23;21060;-83
2021/09/17 12:59:21;;;;;;;4.40;4.00;;;19.20;88.90;;;;;;6088281;23;20697;-83
2021/09/17 13:01:58;;;;;;;4.00;3.80;;;19.30;90.10;;;;;;6090449;23;20172;-82
2021/09/17 13:04:33;;;;;;;3.80;3.43;;;19.20;87.20;;;;;;6090062;23;20595;-84
2021/09/17 13:07:18;;;;;;;4.17;3.87;;;19.30;89.20;;;;;;6089882;23;20638;-82
2021/09/17 13:09:49;;;;;;;3.67;3.37;;;19.20;88.30;;;;;;6090642;23;20627;-82
2021/09/17 13:12:30;;;;;;;3.70;3.40;;;19.20;87.50;;;;;;6090700;23;20561;-82
2021/09/17 13:15:03;;;;;;;3.70;3.40;;;19.20;87.90;;;;;;6090423;23;20564;-82
2021/09/17 13:17:34;;;;;;;3.30;3.10;;;19.10;84.20;;;;;;6089843;23;20649;-82
2021/09/17 13:20:22;;;;;;;3.20;3.00;;;19.10;86.30;;;;;;6089065;23;21265;-82
2021/09/17 13:22:54;;;;;;;3.43;3.13;;;18.90;87.90;;;;;;6086210;23;20602;-83
2021/09/17 13:25:41;;;;;;;4.10;3.80;;;19.00;89.20;;;;;;6089817;23;20593;-82
2021/09/17 13:28:16;;;;;;;3.83;3.53;;;19.20;87.30;;;;;;6089155;23;20601;-83
2021/09/17 13:30:51;;;;;;;4.10;3.80;;;19.30;85.30;;;;;;6090009;23;20615;-82
2021/09/17 13:33:24;;;;;;;3.67;3.27;;;19.30;84.40;;;;;;6090342;23;20612;-82
2021/09/17 13:36:01;;;;;;;3.57;2.83;;;19.30;82.60;;;;;;6090658;22;20613;-83
2021/09/17 13:38:31;;;;;;;3.20;3.00;;;19.50;83.20;;;;;;6089890;23;20594;-83
2021/09/17 13:41:08;;;;;;;4.37;3.97;;;19.70;83.00;;;;;;6089455;23;21075;-82
2021/09/17 13:43:44;;;;;;;4.50;3.93;;;19.90;83.20;;;;;;6089128;23;20650;-82
2021/09/17 13:46:16;;;;;;;4.37;4.07;;;20.30;76.20;;;;;;6090304;23;20907;-83
2021/09/17 13:49:04;;;;;;;4.03;3.63;;;20.60;76.10;;;;;;6088883;23;20578;-82
2021/09/17 13:51:38;;;;;;;3.17;2.97;;;20.80;72.60;;;;;;6090732;23;20559;-83
2021/09/17 13:54:20;;;;;;;3.23;3.00;;;20.90;75.70;;;;;;6090340;23;20531;-83
2021/09/17 13:56:53;;;;;;;3.03;2.80;;;22.00;72.60;;;;;;6089979;23;20641;-83
2021/09/17 13:59:25;;;;;;;3.77;3.47;;;24.20;69.70;;;;;;6089574;23;20582;-83